map of BME home
BME - Airport
Location
City:  Broome, Western Australia, Australia
Name:Broome International Airport
ICAO:YBRM
IATA:BME

Details
Type:Airport (Aerodrome, Airfield)
Use:International (customs port of entry)
Latitude:1756'41"S (-17.944721)
Longitude:12213'54"E (122.231667)
Datum:WGS 1984
Elevation:56 ft (17 m)
Variation:1.72E (WMM2015 magnetic declination)
-0.08 annual change
Runways:1
Longest:8064 × 148 ft (2458 × 45 m), paved

Time
Time Zone:UTC+8
Local Time:

Weather
METAR:YBRM 111000Z AUTO 32011KT 9999 // NCD 30/26 Q1005 RF00.0/000.0
TAF:YBRM 102308Z 1100/1124 28010KT CAVOK
FM111200 29010KT 9999 SCT015
FM111800 27010KT 9999 BKN015

Related Locations
Nearby:
Farthest:DSD: 12198 mi / 19630 km
Grande Anse, La Desirade, GP

Find:

   beyond  
but within

Other Information
Maps:
NOTAMs:
Links:
Sources:

  
  • flag of Australia
  • flag of Western Australia
  

Sectional Chart

Flight Planning
at skyvector.com

Satellite Image

Google Maps Satellite view

 

Copyright © 2004-2018 Karl L. Swartz. All rights reserved.
The Great Circle Mapper name and logo are trademarks of the Great Circle Mapper.
All other trademarks mentioned herein belong to their respective owners.
Please see credits for attibutions and further copyright information.

  Follow gcmap on Facebook Follow gcmap on Twitter Follow gcmap on Google+ GCmap on LinkedIn

hCard Microformat

Geo Microformat